sensor_id;sensor_type;location;lat;lon;timestamp;temperature;humidity
3846;DHT22;1938;50.812;7.738;2023-11-22T00:02:04;4.30;99.90
3846;DHT22;1938;50.812;7.738;2023-11-22T00:04:29;4.30;99.90
3846;DHT22;1938;50.812;7.738;2023-11-22T00:06:55;4.30;99.90
3846;DHT22;1938;50.812;7.738;2023-11-22T00:09:20;4.30;99.90
3846;DHT22;1938;50.812;7.738;2023-11-22T00:11:50;4.30;99.90
3846;DHT22;1938;50.812;7.738;2023-11-22T00:14:15;4.30;99.90
3846;DHT22;1938;50.812;7.738;2023-11-22T00:16:41;4.30;99.90
3846;DHT22;1938;50.812;7.738;2023-11-22T00:19:08;4.30;99.90
3846;DHT22;1938;50.812;7.738;2023-11-22T00:21:34;4.30;99.90
3846;DHT22;1938;50.812;7.738;2023-11-22T00:24:01;4.20;99.90
3846;DHT22;1938;50.812;7.738;2023-11-22T00:26:26;4.10;99.90
3846;DHT22;1938;50.812;7.738;2023-11-22T00:28:52;4.10;99.90
3846;DHT22;1938;50.812;7.738;2023-11-22T00:31:20;4.10;99.90
3846;DHT22;1938;50.812;7.738;2023-11-22T00:33:45;4.10;99.90
3846;DHT22;1938;50.812;7.738;2023-11-22T00:36:11;4.10;99.90
3846;DHT22;1938;50.812;7.738;2023-11-22T00:38:37;4.10;99.90
3846;DHT22;1938;50.812;7.738;2023-11-22T00:41:04;4.10;99.90
3846;DHT22;1938;50.812;7.738;2023-11-22T00:43:30;4.10;99.90
3846;DHT22;1938;50.812;7.738;2023-11-22T00:45:56;4.10;99.90
3846;DHT22;1938;50.812;7.738;2023-11-22T00:48:22;4.10;99.90
3846;DHT22;1938;50.812;7.738;2023-11-22T00:50:48;4.10;99.90
3846;DHT22;1938;50.812;7.738;2023-11-22T00:53:13;4.10;99.90
3846;DHT22;1938;50.812;7.738;2023-11-22T00:55:40;4.10;99.90
3846;DHT22;1938;50.812;7.738;2023-11-22T00:58:05;4.10;99.90
3846;DHT22;1938;50.812;7.738;2023-11-22T01:00:31;4.00;99.90
3846;DHT22;1938;50.812;7.738;2023-11-22T01:02:57;4.10;99.90
3846;DHT22;1938;50.812;7.738;2023-11-22T01:05:22;4.10;99.90
3846;DHT22;1938;50.812;7.738;2023-11-22T01:07:49;4.10;99.90
3846;DHT22;1938;50.812;7.738;2023-11-22T01:10:15;4.10;99.90
3846;DHT22;1938;50.812;7.738;2023-11-22T01:12:41;4.00;99.90
3846;DHT22;1938;50.812;7.738;2023-11-22T01:15:07;4.10;99.90
3846;DHT22;1938;50.812;7.738;2023-11-22T01:17:34;4.20;99.90
3846;DHT22;1938;50.812;7.738;2023-11-22T01:20:00;4.20;99.90
3846;DHT22;1938;50.812;7.738;2023-11-22T01:22:27;4.20;99.90
3846;DHT22;1938;50.812;7.738;2023-11-22T01:24:53;4.20;99.90
3846;DHT22;1938;50.812;7.738;2023-11-22T01:27:19;4.10;99.90
3846;DHT22;1938;50.812;7.738;2023-11-22T01:29:44;4.20;99.90
3846;DHT22;1938;50.812;7.738;2023-11-22T01:32:10;4.20;99.90
3846;DHT22;1938;50.812;7.738;2023-11-22T01:34:36;4.10;99.90
3846;DHT22;1938;50.812;7.738;2023-11-22T01:37:03;4.20;99.90
3846;DHT22;1938;50.812;7.738;2023-11-22T01:39:28;4.10;99.90
3846;DHT22;1938;50.812;7.738;2023-11-22T01:41:54;4.10;99.90
3846;DHT22;1938;50.812;7.738;2023-11-22T01:44:20;4.00;99.90
3846;DHT22;1938;50.812;7.738;2023-11-22T01:46:45;4.00;99.90
3846;DHT22;1938;50.812;7.738;2023-11-22T01:49:11;4.10;99.90
3846;DHT22;1938;50.812;7.738;2023-11-22T01:51:41;4.00;99.90
3846;DHT22;1938;50.812;7.738;2023-11-22T01:54:08;4.00;99.90
3846;DHT22;1938;50.812;7.738;2023-11-22T01:56:36;4.00;99.90
3846;DHT22;1938;50.812;7.738;2023-11-22T01:59:05;4.10;99.90
3846;DHT22;1938;50.812;7.738;2023-11-22T02:01:30;4.00;99.90
3846;DHT22;1938;50.812;7.738;2023-11-22T02:03:58;4.00;99.90
3846;DHT22;1938;50.812;7.738;2023-11-22T02:06:23;4.00;99.90
3846;DHT22;1938;50.812;7.738;2023-11-22T02:08:50;4.00;99.90
3846;DHT22;1938;50.812;7.738;2023-11-22T02:11:19;4.00;99.90
3846;DHT22;1938;50.812;7.738;2023-11-22T02:13:48;4.00;99.90
3846;DHT22;1938;50.812;7.738;2023-11-22T02:16:18;4.00;99.90
3846;DHT22;1938;50.812;7.738;2023-11-22T02:18:46;3.90;99.90
3846;DHT22;1938;50.812;7.738;2023-11-22T02:21:12;3.90;99.90
3846;DHT22;1938;50.812;7.738;2023-11-22T02:23:38;3.90;99.90
3846;DHT22;1938;50.812;7.738;2023-11-22T02:26:04;3.90;99.90
3846;DHT22;1938;50.812;7.738;2023-11-22T02:28:30;3.90;99.90
3846;DHT22;1938;50.812;7.738;2023-11-22T02:30:56;3.90;99.90
3846;DHT22;1938;50.812;7.738;2023-11-22T02:33:21;3.90;99.90
3846;DHT22;1938;50.812;7.738;2023-11-22T02:35:47;3.90;99.90
3846;DHT22;1938;50.812;7.738;2023-11-22T02:38:12;3.90;99.90
3846;DHT22;1938;50.812;7.738;2023-11-22T02:40:38;4.00;99.90
3846;DHT22;1938;50.812;7.738;2023-11-22T02:43:03;4.00;99.90
3846;DHT22;1938;50.812;7.738;2023-11-22T02:45:34;4.00;99.90
3846;DHT22;1938;50.812;7.738;2023-11-22T02:48:00;4.00;99.90
3846;DHT22;1938;50.812;7.738;2023-11-22T02:50:27;4.00;99.90
3846;DHT22;1938;50.812;7.738;2023-11-22T02:52:53;4.00;99.90
3846;DHT22;1938;50.812;7.738;2023-11-22T02:55:18;4.00;99.90
3846;DHT22;1938;50.812;7.738;2023-11-22T02:57:46;3.90;99.90
3846;DHT22;1938;50.812;7.738;2023-11-22T03:00:12;3.80;99.90
3846;DHT22;1938;50.812;7.738;2023-11-22T03:02:43;3.80;99.90
3846;DHT22;1938;50.812;7.738;2023-11-22T03:05:09;3.80;99.90
3846;DHT22;1938;50.812;7.738;2023-11-22T03:07:38;3.80;99.90
3846;DHT22;1938;50.812;7.738;2023-11-22T03:10:04;3.80;99.90
3846;DHT22;1938;50.812;7.738;2023-11-22T03:12:30;3.80;99.90
3846;DHT22;1938;50.812;7.738;2023-11-22T03:15:01;3.80;99.90
3846;DHT22;1938;50.812;7.738;2023-11-22T03:17:28;3.80;99.90
3846;DHT22;1938;50.812;7.738;2023-11-22T03:19:55;3.70;99.90
3846;DHT22;1938;50.812;7.738;2023-11-22T03:22:25;3.60;96.30
3846;DHT22;1938;50.812;7.738;2023-11-22T03:24:51;3.50;49.50
3846;DHT22;1938;50.812;7.738;2023-11-22T03:27:18;3.50;50.20
3846;DHT22;1938;50.812;7.738;2023-11-22T03:29:43;3.40;2.40
3846;DHT22;1938;50.812;7.738;2023-11-22T03:32:09;3.40;45.00
3846;DHT22;1938;50.812;7.738;2023-11-22T03:34:36;3.30;22.60
3846;DHT22;1938;50.812;7.738;2023-11-22T03:37:02;3.20;65.40
3846;DHT22;1938;50.812;7.738;2023-11-22T03:39:28;3.10;99.90
3846;DHT22;1938;50.812;7.738;2023-11-22T03:41:53;3.10;99.90
3846;DHT22;1938;50.812;7.738;2023-11-22T03:44:19;3.10;99.90
3846;DHT22;1938;50.812;7.738;2023-11-22T03:46:44;3.00;99.90
3846;DHT22;1938;50.812;7.738;2023-11-22T03:49:10;2.90;90.10
3846;DHT22;1938;50.812;7.738;2023-11-22T03:51:38;2.80;72.00
3846;DHT22;1938;50.812;7.738;2023-11-22T03:54:03;2.70;92.30
3846;DHT22;1938;50.812;7.738;2023-11-22T03:56:29;2.70;49.50
3846;DHT22;1938;50.812;7.738;2023-11-22T03:58:56;2.60;1.00
3846;DHT22;1938;50.812;7.738;2023-11-22T04:01:21;2.60;1.00
3846;DHT22;1938;50.812;7.738;2023-11-22T04:03:47;2.50;99.90
3846;DHT22;1938;50.812;7.738;2023-11-22T04:06:14;2.50;99.90
3846;DHT22;1938;50.812;7.738;2023-11-22T04:08:41;2.40;99.90
3846;DHT22;1938;50.812;7.738;2023-11-22T04:11:09;2.40;27.80
3846;DHT22;1938;50.812;7.738;2023-11-22T04:13:35;2.30;1.00
3846;DHT22;1938;50.812;7.738;2023-11-22T04:16:01;2.20;23.70
3846;DHT22;1938;50.812;7.738;2023-11-22T04:18:26;2.10;26.40
3846;DHT22;1938;50.812;7.738;2023-11-22T04:20:52;2.10;99.90
3846;DHT22;1938;50.812;7.738;2023-11-22T04:23:18;2.00;99.90
3846;DHT22;1938;50.812;7.738;2023-11-22T04:25:43;1.90;99.90
3846;DHT22;1938;50.812;7.738;2023-11-22T04:28:09;1.90;99.90
3846;DHT22;1938;50.812;7.738;2023-11-22T04:30:35;1.90;99.90
3846;DHT22;1938;50.812;7.738;2023-11-22T04:33:01;1.90;99.90
3846;DHT22;1938;50.812;7.738;2023-11-22T04:35:27;1.80;22.40
3846;DHT22;1938;50.812;7.738;2023-11-22T04:37:53;1.80;95.80
3846;DHT22;1938;50.812;7.738;2023-11-22T04:40:20;1.70;99.90
3846;DHT22;1938;50.812;7.738;2023-11-22T04:42:46;1.70;99.90
3846;DHT22;1938;50.812;7.738;2023-11-22T04:45:12;1.60;58.30
3846;DHT22;1938;50.812;7.738;2023-11-22T04:47:38;1.60;99.90
3846;DHT22;1938;50.812;7.738;2023-11-22T04:50:04;1.60;99.90
3846;DHT22;1938;50.812;7.738;2023-11-22T04:52:30;1.60;99.90
3846;DHT22;1938;50.812;7.738;2023-11-22T04:54:56;1.50;45.80
3846;DHT22;1938;50.812;7.738;2023-11-22T04:57:21;1.50;99.90
3846;DHT22;1938;50.812;7.738;2023-11-22T04:59:47;1.50;99.90
3846;DHT22;1938;50.812;7.738;2023-11-22T05:02:12;1.60;56.70
3846;DHT22;1938;50.812;7.738;2023-11-22T05:04:38;1.50;99.90
3846;DHT22;1938;50.812;7.738;2023-11-22T05:07:04;1.50;99.90
3846;DHT22;1938;50.812;7.738;2023-11-22T05:09:29;1.30;99.90
3846;DHT22;1938;50.812;7.738;2023-11-22T05:11:55;1.30;1.00
3846;DHT22;1938;50.812;7.738;2023-11-22T05:14:20;1.30;99.90
3846;DHT22;1938;50.812;7.738;2023-11-22T05:16:46;1.40;1.00
3846;DHT22;1938;50.812;7.738;2023-11-22T05:19:12;1.40;99.90
3846;DHT22;1938;50.812;7.738;2023-11-22T05:21:37;1.40;99.90
3846;DHT22;1938;50.812;7.738;2023-11-22T05:24:03;1.30;99.90
3846;DHT22;1938;50.812;7.738;2023-11-22T05:26:30;1.20;99.90
3846;DHT22;1938;50.812;7.738;2023-11-22T05:28:55;1.20;99.90
3846;DHT22;1938;50.812;7.738;2023-11-22T05:31:21;1.20;1.00
3846;DHT22;1938;50.812;7.738;2023-11-22T05:33:46;1.00;1.00
3846;DHT22;1938;50.812;7.738;2023-11-22T05:36:12;0.90;1.00
3846;DHT22;1938;50.812;7.738;2023-11-22T05:38:38;0.90;1.00
3846;DHT22;1938;50.812;7.738;2023-11-22T05:41:05;0.80;1.00
3846;DHT22;1938;50.812;7.738;2023-11-22T05:43:30;0.80;1.00
3846;DHT22;1938;50.812;7.738;2023-11-22T05:45:56;0.80;1.00
3846;DHT22;1938;50.812;7.738;2023-11-22T05:48:22;0.80;99.90
3846;DHT22;1938;50.812;7.738;2023-11-22T05:50:48;0.80;99.90
3846;DHT22;1938;50.812;7.738;2023-11-22T05:53:14;0.80;99.90
3846;DHT22;1938;50.812;7.738;2023-11-22T05:55:47;0.70;99.90
3846;DHT22;1938;50.812;7.738;2023-11-22T05:58:16;0.70;99.90
3846;DHT22;1938;50.812;7.738;2023-11-22T06:00:49;0.70;99.90
3846;DHT22;1938;50.812;7.738;2023-11-22T06:03:15;0.70;99.90
3846;DHT22;1938;50.812;7.738;2023-11-22T06:05:40;0.70;99.90
3846;DHT22;1938;50.812;7.738;2023-11-22T06:08:06;0.80;99.90
3846;DHT22;1938;50.812;7.738;2023-11-22T06:10:33;0.80;99.90
3846;DHT22;1938;50.812;7.738;2023-11-22T06:12:59;0.80;99.90
3846;DHT22;1938;50.812;7.738;2023-11-22T06:15:24;0.80;99.90
3846;DHT22;1938;50.812;7.738;2023-11-22T06:17:50;0.80;99.90
3846;DHT22;1938;50.812;7.738;2023-11-22T06:20:16;0.80;99.90
3846;DHT22;1938;50.812;7.738;2023-11-22T06:22:42;0.90;99.90
3846;DHT22;1938;50.812;7.738;2023-11-22T06:25:11;0.80;99.90
3846;DHT22;1938;50.812;7.738;2023-11-22T06:27:37;0.80;99.90
3846;DHT22;1938;50.812;7.738;2023-11-22T06:30:04;0.90;99.90
3846;DHT22;1938;50.812;7.738;2023-11-22T06:32:29;0.90;99.90
3846;DHT22;1938;50.812;7.738;2023-11-22T06:34:55;0.80;99.90
3846;DHT22;1938;50.812;7.738;2023-11-22T06:37:20;0.80;99.90
3846;DHT22;1938;50.812;7.738;2023-11-22T06:39:46;0.80;79.10
3846;DHT22;1938;50.812;7.738;2023-11-22T06:42:12;0.90;99.90
3846;DHT22;1938;50.812;7.738;2023-11-22T06:44:38;0.90;99.90
3846;DHT22;1938;50.812;7.738;2023-11-22T06:47:05;0.80;44.30
3846;DHT22;1938;50.812;7.738;2023-11-22T06:49:31;0.80;47.70
3846;DHT22;1938;50.812;7.738;2023-11-22T06:51:57;0.70;1.00
3846;DHT22;1938;50.812;7.738;2023-11-22T06:54:23;0.60;1.00
3846;DHT22;1938;50.812;7.738;2023-11-22T06:56:48;0.60;25.80
3846;DHT22;1938;50.812;7.738;2023-11-22T06:59:16;0.60;79.80
3846;DHT22;1938;50.812;7.738;2023-11-22T07:01:42;0.50;75.30
3846;DHT22;1938;50.812;7.738;2023-11-22T07:04:08;0.60;99.90
3846;DHT22;1938;50.812;7.738;2023-11-22T07:06:34;0.50;99.90
3846;DHT22;1938;50.812;7.738;2023-11-22T07:09:01;0.60;99.90
3846;DHT22;1938;50.812;7.738;2023-11-22T07:11:27;0.60;99.90
3846;DHT22;1938;50.812;7.738;2023-11-22T07:13:56;0.60;91.40
3846;DHT22;1938;50.812;7.738;2023-11-22T07:16:23;0.70;99.90
3846;DHT22;1938;50.812;7.738;2023-11-22T07:18:50;0.70;36.20
3846;DHT22;1938;50.812;7.738;2023-11-22T07:21:16;0.70;52.20
3846;DHT22;1938;50.812;7.738;2023-11-22T07:23:42;0.80;46.90
3846;DHT22;1938;50.812;7.738;2023-11-22T07:26:10;0.70;51.40
3846;DHT22;1938;50.812;7.738;2023-11-22T07:28:36;0.80;1.00
3846;DHT22;1938;50.812;7.738;2023-11-22T07:31:02;0.80;1.00
3846;DHT22;1938;50.812;7.738;2023-11-22T07:33:31;0.80;1.00
3846;DHT22;1938;50.812;7.738;2023-11-22T07:35:56;0.80;1.00
3846;DHT22;1938;50.812;7.738;2023-11-22T07:38:24;0.90;99.90
3846;DHT22;1938;50.812;7.738;2023-11-22T07:40:50;0.90;99.90
3846;DHT22;1938;50.812;7.738;2023-11-22T07:43:16;0.90;99.90
3846;DHT22;1938;50.812;7.738;2023-11-22T07:45:42;1.00;99.90
3846;DHT22;1938;50.812;7.738;2023-11-22T07:48:10;1.00;99.90
3846;DHT22;1938;50.812;7.738;2023-11-22T07:50:38;1.10;96.80
3846;DHT22;1938;50.812;7.738;2023-11-22T07:53:04;1.10;36.80
3846;DHT22;1938;50.812;7.738;2023-11-22T07:55:31;1.20;39.10
3846;DHT22;1938;50.812;7.738;2023-11-22T07:57:56;1.30;99.90
3846;DHT22;1938;50.812;7.738;2023-11-22T08:00:22;1.70;18.80
3846;DHT22;1938;50.812;7.738;2023-11-22T08:02:48;2.30;74.10
3846;DHT22;1938;50.812;7.738;2023-11-22T08:05:15;3.00;1.00
3846;DHT22;1938;50.812;7.738;2023-11-22T08:07:42;3.60;1.00
3846;DHT22;1938;50.812;7.738;2023-11-22T08:10:09;3.00;99.90
3846;DHT22;1938;50.812;7.738;2023-11-22T08:12:42;2.60;1.00
3846;DHT22;1938;50.812;7.738;2023-11-22T08:15:10;2.20;99.90
3846;DHT22;1938;50.812;7.738;2023-11-22T08:17:39;2.10;99.90
3846;DHT22;1938;50.812;7.738;2023-11-22T08:20:06;2.00;99.90
3846;DHT22;1938;50.812;7.738;2023-11-22T08:22:32;2.00;99.90
3846;DHT22;1938;50.812;7.738;2023-11-22T08:25:03;1.90;99.90
3846;DHT22;1938;50.812;7.738;2023-11-22T08:27:29;1.80;1.00
3846;DHT22;1938;50.812;7.738;2023-11-22T08:29:55;2.10;1.00
3846;DHT22;1938;50.812;7.738;2023-11-22T08:32:20;2.60;1.00
3846;DHT22;1938;50.812;7.738;2023-11-22T08:34:49;2.40;99.90
3846;DHT22;1938;50.812;7.738;2023-11-22T08:37:15;2.30;99.90
3846;DHT22;1938;50.812;7.738;2023-11-22T08:39:41;2.60;1.00
3846;DHT22;1938;50.812;7.738;2023-11-22T08:42:08;2.60;99.90
3846;DHT22;1938;50.812;7.738;2023-11-22T08:44:35;2.70;1.00
3846;DHT22;1938;50.812;7.738;2023-11-22T08:47:02;2.50;96.10
3846;DHT22;1938;50.812;7.738;2023-11-22T08:49:29;2.40;1.00
3846;DHT22;1938;50.812;7.738;2023-11-22T08:51:58;2.10;99.90
3846;DHT22;1938;50.812;7.738;2023-11-22T08:54:25;2.20;1.00
3846;DHT22;1938;50.812;7.738;2023-11-22T08:56:54;2.80;1.00
3846;DHT22;1938;50.812;7.738;2023-11-22T08:59:21;2.40;99.90
3846;DHT22;1938;50.812;7.738;2023-11-22T09:01:47;2.40;99.90
3846;DHT22;1938;50.812;7.738;2023-11-22T09:04:13;2.50;99.90
3846;DHT22;1938;50.812;7.738;2023-11-22T09:06:39;2.60;99.90
3846;DHT22;1938;50.812;7.738;2023-11-22T09:09:04;2.80;1.00
3846;DHT22;1938;50.812;7.738;2023-11-22T09:11:30;2.70;1.00
3846;DHT22;1938;50.812;7.738;2023-11-22T09:13:57;2.80;1.00
3846;DHT22;1938;50.812;7.738;2023-11-22T09:16:23;2.80;99.90
3846;DHT22;1938;50.812;7.738;2023-11-22T09:18:50;2.90;99.90
3846;DHT22;1938;50.812;7.738;2023-11-22T09:21:16;3.30;1.00
3846;DHT22;1938;50.812;7.738;2023-11-22T09:23:43;3.50;1.00
3846;DHT22;1938;50.812;7.738;2023-11-22T09:26:08;3.30;99.90
3846;DHT22;1938;50.812;7.738;2023-11-22T09:28:35;3.40;99.90
3846;DHT22;1938;50.812;7.738;2023-11-22T09:31:01;3.10;99.90
3846;DHT22;1938;50.812;7.738;2023-11-22T09:33:31;3.30;99.90
3846;DHT22;1938;50.812;7.738;2023-11-22T09:35:57;3.20;99.90
3846;DHT22;1938;50.812;7.738;2023-11-22T09:38:25;3.00;24.30
3846;DHT22;1938;50.812;7.738;2023-11-22T09:40:51;2.90;90.50
3846;DHT22;1938;50.812;7.738;2023-11-22T09:43:18;3.30;99.90
3846;DHT22;1938;50.812;7.738;2023-11-22T09:45:45;3.60;15.80
3846;DHT22;1938;50.812;7.738;2023-11-22T09:48:19;3.40;1.00
3846;DHT22;1938;50.812;7.738;2023-11-22T09:53:34;3.40;1.00
3846;DHT22;1938;50.812;7.738;2023-11-22T09:56:01;3.60;1.00
3846;DHT22;1938;50.812;7.738;2023-11-22T09:58:33;3.60;1.00
3846;DHT22;1938;50.812;7.738;2023-11-22T10:01:02;4.10;99.90
3846;DHT22;1938;50.812;7.738;2023-11-22T10:03:29;4.40;1.00
3846;DHT22;1938;50.812;7.738;2023-11-22T10:05:57;4.70;1.00
3846;DHT22;1938;50.812;7.738;2023-11-22T10:08:25;4.90;1.00
3846;DHT22;1938;50.812;7.738;2023-11-22T10:10:56;5.30;1.00
3846;DHT22;1938;50.812;7.738;2023-11-22T10:13:24;5.70;1.00
3846;DHT22;1938;50.812;7.738;2023-11-22T10:15:51;5.90;1.00
3846;DHT22;1938;50.812;7.738;2023-11-22T10:18:19;6.10;1.00
3846;DHT22;1938;50.812;7.738;2023-11-22T10:20:47;4.80;1.00
3846;DHT22;1938;50.812;7.738;2023-11-22T10:23:14;4.70;1.00
3846;DHT22;1938;50.812;7.738;2023-11-22T10:25:47;5.00;1.00
3846;DHT22;1938;50.812;7.738;2023-11-22T10:28:20;5.20;1.00
3846;DHT22;1938;50.812;7.738;2023-11-22T10:30:47;5.40;1.00
3846;DHT22;1938;50.812;7.738;2023-11-22T10:33:14;5.60;1.00
3846;DHT22;1938;50.812;7.738;2023-11-22T10:35:43;5.70;1.00
3846;DHT22;1938;50.812;7.738;2023-11-22T10:38:09;5.80;1.00
3846;DHT22;1938;50.812;7.738;2023-11-22T10:40:36;6.10;1.00
3846;DHT22;1938;50.812;7.738;2023-11-22T10:43:05;6.00;1.00
3846;DHT22;1938;50.812;7.738;2023-11-22T10:45:33;6.30;1.00
3846;DHT22;1938;50.812;7.738;2023-11-22T10:48:00;6.50;1.00
3846;DHT22;1938;50.812;7.738;2023-11-22T10:50:26;6.70;1.00
3846;DHT22;1938;50.812;7.738;2023-11-22T10:52:57;6.50;1.00
3846;DHT22;1938;50.812;7.738;2023-11-22T10:55:26;6.80;1.00
3846;DHT22;1938;50.812;7.738;2023-11-22T10:57:55;6.70;1.00
3846;DHT22;1938;50.812;7.738;2023-11-22T11:00:22;6.90;1.00
3846;DHT22;1938;50.812;7.738;2023-11-22T11:03:07;7.10;1.00
3846;DHT22;1938;50.812;7.738;2023-11-22T11:05:38;7.30;1.00
3846;DHT22;1938;50.812;7.738;2023-11-22T11:08:25;7.40;1.00
3846;DHT22;1938;50.812;7.738;2023-11-22T11:10:53;7.50;1.00
3846;DHT22;1938;50.812;7.738;2023-11-22T11:13:21;7.60;1.00
3846;DHT22;1938;50.812;7.738;2023-11-22T11:15:47;7.60;1.00
3846;DHT22;1938;50.812;7.738;2023-11-22T11:18:14;7.50;1.00
3846;DHT22;1938;50.812;7.738;2023-11-22T11:20:51;7.40;1.00
3846;DHT22;1938;50.812;7.738;2023-11-22T11:23:20;7.50;1.00
3846;DHT22;1938;50.812;7.738;2023-11-22T11:25:49;7.40;1.00
3846;DHT22;1938;50.812;7.738;2023-11-22T11:28:15;7.40;1.00
3846;DHT22;1938;50.812;7.738;2023-11-22T11:30:44;7.40;1.00
3846;DHT22;1938;50.812;7.738;2023-11-22T11:33:11;7.50;1.00
3846;DHT22;1938;50.812;7.738;2023-11-22T11:35:50;7.50;1.00
3846;DHT22;1938;50.812;7.738;2023-11-22T11:38:20;7.60;1.00
3846;DHT22;1938;50.812;7.738;2023-11-22T11:40:48;7.50;1.00
3846;DHT22;1938;50.812;7.738;2023-11-22T11:43:13;7.50;1.00
3846;DHT22;1938;50.812;7.738;2023-11-22T11:45:41;7.60;1.00
3846;DHT22;1938;50.812;7.738;2023-11-22T11:48:14;7.60;1.00
3846;DHT22;1938;50.812;7.738;2023-11-22T11:50:41;6.50;99.90
3846;DHT22;1938;50.812;7.738;2023-11-22T11:53:08;5.60;99.90
3846;DHT22;1938;50.812;7.738;2023-11-22T11:55:33;4.90;99.90
3846;DHT22;1938;50.812;7.738;2023-11-22T11:58:05;4.80;99.90
3846;DHT22;1938;50.812;7.738;2023-11-22T12:00:33;4.40;99.90
3846;DHT22;1938;50.812;7.738;2023-11-22T12:02:58;4.40;99.90
3846;DHT22;1938;50.812;7.738;2023-11-22T12:05:24;4.40;99.90
3846;DHT22;1938;50.812;7.738;2023-11-22T12:07:50;4.30;99.90
3846;DHT22;1938;50.812;7.738;2023-11-22T12:10:17;4.00;99.90
3846;DHT22;1938;50.812;7.738;2023-11-22T12:12:43;4.20;99.90
3846;DHT22;1938;50.812;7.738;2023-11-22T12:15:10;4.20;99.90
3846;DHT22;1938;50.812;7.738;2023-11-22T12:17:36;4.30;99.90
3846;DHT22;1938;50.812;7.738;2023-11-22T12:20:13;4.20;99.90
3846;DHT22;1938;50.812;7.738;2023-11-22T12:22:40;4.00;99.90
3846;DHT22;1938;50.812;7.738;2023-11-22T12:25:07;4.00;99.90
3846;DHT22;1938;50.812;7.738;2023-11-22T12:27:32;4.00;99.90
3846;DHT22;1938;50.812;7.738;2023-11-22T12:29:58;4.10;99.90
3846;DHT22;1938;50.812;7.738;2023-11-22T12:32:24;4.30;99.90
3846;DHT22;1938;50.812;7.738;2023-11-22T12:34:50;4.30;99.90
3846;DHT22;1938;50.812;7.738;2023-11-22T12:37:20;4.10;99.90
3846;DHT22;1938;50.812;7.738;2023-11-22T12:39:47;4.00;99.90
3846;DHT22;1938;50.812;7.738;2023-11-22T12:42:13;4.00;99.90
3846;DHT22;1938;50.812;7.738;2023-11-22T12:44:51;4.00;99.90
3846;DHT22;1938;50.812;7.738;2023-11-22T12:47:33;4.00;99.90
3846;DHT22;1938;50.812;7.738;2023-11-22T12:50:02;4.20;99.90
3846;DHT22;1938;50.812;7.738;2023-11-22T12:52:32;4.40;99.90
3846;DHT22;1938;50.812;7.738;2023-11-22T12:54:58;4.60;99.90
3846;DHT22;1938;50.812;7.738;2023-11-22T12:57:25;4.50;99.90
3846;DHT22;1938;50.812;7.738;2023-11-22T12:59:51;4.40;99.90
3846;DHT22;1938;50.812;7.738;2023-11-22T13:02:16;4.50;99.90
3846;DHT22;1938;50.812;7.738;2023-11-22T13:04:43;4.20;99.90
3846;DHT22;1938;50.812;7.738;2023-11-22T13:07:09;4.10;99.90
3846;DHT22;1938;50.812;7.738;2023-11-22T13:09:34;4.00;99.90
3846;DHT22;1938;50.812;7.738;2023-11-22T13:12:01;4.00;99.90
3846;DHT22;1938;50.812;7.738;2023-11-22T13:14:26;4.00;99.90
3846;DHT22;1938;50.812;7.738;2023-11-22T13:16:57;4.00;99.90
3846;DHT22;1938;50.812;7.738;2023-11-22T13:19:23;4.10;99.90
3846;DHT22;1938;50.812;7.738;2023-11-22T13:21:51;4.40;99.90
3846;DHT22;1938;50.812;7.738;2023-11-22T13:24:17;4.70;99.90
3846;DHT22;1938;50.812;7.738;2023-11-22T13:26:43;4.60;99.90
3846;DHT22;1938;50.812;7.738;2023-11-22T13:29:09;4.80;99.90
3846;DHT22;1938;50.812;7.738;2023-11-22T13:31:35;5.00;99.90
3846;DHT22;1938;50.812;7.738;2023-11-22T13:34:01;5.10;99.90
3846;DHT22;1938;50.812;7.738;2023-11-22T13:36:27;5.30;99.90
3846;DHT22;1938;50.812;7.738;2023-11-22T13:38:53;5.40;99.90
3846;DHT22;1938;50.812;7.738;2023-11-22T13:41:20;5.00;99.90
3846;DHT22;1938;50.812;7.738;2023-11-22T13:43:46;4.60;99.90
3846;DHT22;1938;50.812;7.738;2023-11-22T13:46:14;4.30;99.90
3846;DHT22;1938;50.812;7.738;2023-11-22T13:48:40;4.10;99.90
3846;DHT22;1938;50.812;7.738;2023-11-22T13:51:08;4.10;99.90
3846;DHT22;1938;50.812;7.738;2023-11-22T13:53:36;4.00;99.90
3846;DHT22;1938;50.812;7.738;2023-11-22T13:56:03;3.90;99.90
3846;DHT22;1938;50.812;7.738;2023-11-22T13:58:34;3.80;99.90
3846;DHT22;1938;50.812;7.738;2023-11-22T14:01:00;3.80;99.90
3846;DHT22;1938;50.812;7.738;2023-11-22T14:03:26;3.70;97.70
3846;DHT22;1938;50.812;7.738;2023-11-22T14:05:51;3.60;94.10
3846;DHT22;1938;50.812;7.738;2023-11-22T14:08:17;3.60;91.90
3846;DHT22;1938;50.812;7.738;2023-11-22T14:10:43;3.50;86.40
3846;DHT22;1938;50.812;7.738;2023-11-22T14:13:10;3.40;91.60
3846;DHT22;1938;50.812;7.738;2023-11-22T14:15:37;3.50;94.70
3846;DHT22;1938;50.812;7.738;2023-11-22T14:18:03;3.50;96.90
3846;DHT22;1938;50.812;7.738;2023-11-22T14:20:29;3.70;99.90
3846;DHT22;1938;50.812;7.738;2023-11-22T14:22:55;3.80;99.90
3846;DHT22;1938;50.812;7.738;2023-11-22T14:25:20;4.00;99.90
3846;DHT22;1938;50.812;7.738;2023-11-22T14:27:47;4.20;99.90
3846;DHT22;1938;50.812;7.738;2023-11-22T14:30:17;4.30;99.90
3846;DHT22;1938;50.812;7.738;2023-11-22T14:32:43;4.50;99.90
3846;DHT22;1938;50.812;7.738;2023-11-22T14:35:09;4.70;99.90
3846;DHT22;1938;50.812;7.738;2023-11-22T14:37:35;4.80;99.90
3846;DHT22;1938;50.812;7.738;2023-11-22T14:40:01;4.90;99.90
3846;DHT22;1938;50.812;7.738;2023-11-22T14:42:29;4.90;99.90
3846;DHT22;1938;50.812;7.738;2023-11-22T14:44:57;4.90;99.90
3846;DHT22;1938;50.812;7.738;2023-11-22T14:47:22;4.90;99.90
3846;DHT22;1938;50.812;7.738;2023-11-22T14:49:54;5.00;99.90
3846;DHT22;1938;50.812;7.738;2023-11-22T14:52:20;5.10;99.90
3846;DHT22;1938;50.812;7.738;2023-11-22T14:54:46;5.10;99.90
3846;DHT22;1938;50.812;7.738;2023-11-22T14:57:13;5.10;99.90
3846;DHT22;1938;50.812;7.738;2023-11-22T14:59:39;5.10;99.90
3846;DHT22;1938;50.812;7.738;2023-11-22T15:02:05;5.10;99.90
3846;DHT22;1938;50.812;7.738;2023-11-22T15:04:35;5.10;99.90
3846;DHT22;1938;50.812;7.738;2023-11-22T15:07:03;5.10;99.90
3846;DHT22;1938;50.812;7.738;2023-11-22T15:09:29;5.10;99.90
3846;DHT22;1938;50.812;7.738;2023-11-22T15:11:59;5.10;99.90
3846;DHT22;1938;50.812;7.738;2023-11-22T15:14:32;5.10;99.90
3846;DHT22;1938;50.812;7.738;2023-11-22T15:16:58;5.10;99.90
3846;DHT22;1938;50.812;7.738;2023-11-22T15:19:26;5.00;99.90
3846;DHT22;1938;50.812;7.738;2023-11-22T15:21:53;5.00;99.90
3846;DHT22;1938;50.812;7.738;2023-11-22T15:24:19;5.00;99.90
3846;DHT22;1938;50.812;7.738;2023-11-22T15:26:45;5.00;99.90
3846;DHT22;1938;50.812;7.738;2023-11-22T15:29:10;5.00;99.90
3846;DHT22;1938;50.812;7.738;2023-11-22T15:31:36;5.00;97.90
3846;DHT22;1938;50.812;7.738;2023-11-22T15:34:01;4.90;95.50
3846;DHT22;1938;50.812;7.738;2023-11-22T15:36:27;5.00;93.90
3846;DHT22;1938;50.812;7.738;2023-11-22T15:38:53;4.90;94.90
3846;DHT22;1938;50.812;7.738;2023-11-22T15:41:19;5.00;93.00
3846;DHT22;1938;50.812;7.738;2023-11-22T15:43:45;5.00;91.70
3846;DHT22;1938;50.812;7.738;2023-11-22T15:46:12;4.90;91.40
3846;DHT22;1938;50.812;7.738;2023-11-22T15:48:38;5.00;90.80
3846;DHT22;1938;50.812;7.738;2023-11-22T15:51:04;4.90;88.40
3846;DHT22;1938;50.812;7.738;2023-11-22T15:53:32;4.90;81.80
3846;DHT22;1938;50.812;7.738;2023-11-22T15:55:58;4.90;74.90
3846;DHT22;1938;50.812;7.738;2023-11-22T15:58:24;4.90;72.60
3846;DHT22;1938;50.812;7.738;2023-11-22T16:00:49;4.90;72.00
3846;DHT22;1938;50.812;7.738;2023-11-22T16:03:16;4.90;71.90
3846;DHT22;1938;50.812;7.738;2023-11-22T16:05:43;4.90;69.80
3846;DHT22;1938;50.812;7.738;2023-11-22T16:08:11;4.80;69.80
3846;DHT22;1938;50.812;7.738;2023-11-22T16:10:36;4.80;62.30
3846;DHT22;1938;50.812;7.738;2023-11-22T16:13:02;4.80;62.60
3846;DHT22;1938;50.812;7.738;2023-11-22T16:15:28;4.80;60.90
3846;DHT22;1938;50.812;7.738;2023-11-22T16:17:53;4.80;58.40
3846;DHT22;1938;50.812;7.738;2023-11-22T16:20:21;4.80;59.30
3846;DHT22;1938;50.812;7.738;2023-11-22T16:22:47;4.80;57.30